createdAt,value
2022-09-10T00:00:03.042Z,96827.50
2022-09-10T00:01:04.866Z,96830.59
2022-09-10T00:02:06.707Z,96831.63
2022-09-10T00:03:08.558Z,96829.78
2022-09-10T00:04:11.833Z,96840.09
2022-09-10T00:05:13.643Z,96840.66
2022-09-10T00:06:16.250Z,96836.19
2022-09-10T00:07:18.911Z,96841.66
2022-09-10T00:08:22.004Z,96840.66
2022-09-10T00:09:24.000Z,96842.94
2022-09-10T00:10:26.637Z,96833.69
2022-09-10T00:11:32.448Z,96828.91
2022-09-10T00:12:35.538Z,96831.94
2022-09-10T00:13:39.433Z,96832.53
2022-09-10T00:14:41.269Z,96829.69
2022-09-10T00:15:48.729Z,96828.66
2022-09-10T00:16:50.695Z,96830.50
2022-09-10T00:17:52.409Z,96832.88
2022-09-10T00:18:54.339Z,96835.78
2022-09-10T00:19:56.148Z,96840.22
2022-09-10T00:20:59.362Z,96843.66
2022-09-10T00:22:01.435Z,96834.72
2022-09-10T00:23:05.038Z,96839.53
2022-09-10T00:24:06.920Z,96837.44
2022-09-10T00:25:08.919Z,96828.50
2022-09-10T00:26:13.125Z,96831.63
2022-09-10T00:27:16.091Z,96833.22
2022-09-10T00:28:18.669Z,96821.09
2022-09-10T00:29:20.617Z,96817.66
2022-09-10T00:30:22.590Z,96830.03
2022-09-10T00:31:24.750Z,96825.53
2022-09-10T00:32:26.572Z,96831.63
2022-09-10T00:33:30.455Z,96826.38
2022-09-10T00:34:33.190Z,96830.03
2022-09-10T00:35:35.057Z,96821.56
2022-09-10T00:36:38.884Z,96818.38
2022-09-10T00:37:41.130Z,96813.66
2022-09-10T00:38:43.039Z,96817.91
2022-09-10T00:39:44.907Z,96818.47
2022-09-10T00:40:47.126Z,96824.53
2022-09-10T00:41:49.148Z,96820.06
2022-09-10T00:42:50.866Z,96820.84
2022-09-10T00:43:56.829Z,96821.09
2022-09-10T00:45:00.284Z,96817.66
2022-09-10T00:46:02.209Z,96814.78
2022-09-10T00:47:05.152Z,96817.19
2022-09-10T00:48:12.421Z,96822.78
2022-09-10T00:49:20.656Z,96817.25
2022-09-10T00:50:25.889Z,96814.41
2022-09-10T00:51:31.603Z,96810.97
2022-09-10T00:52:38.921Z,96812.81
2022-09-10T00:53:43.426Z,96819.66
2022-09-10T00:54:45.923Z,96817.25
2022-09-10T00:55:50.660Z,96816.97
2022-09-10T00:56:55.300Z,96808.50
2022-09-10T00:58:00.697Z,96806.91
2022-09-10T00:59:04.046Z,96806.66
2022-09-10T01:00:08.309Z,96806.91
2022-09-10T01:01:11.344Z,96806.09
2022-09-10T01:02:15.151Z,96811.03
2022-09-10T01:03:17.374Z,96812.56
2022-09-10T01:04:19.167Z,96813.13
2022-09-10T01:05:21.586Z,96817.34
2022-09-10T01:06:24.335Z,96825.00
2022-09-10T01:07:29.352Z,96827.38
2022-09-10T01:08:31.610Z,96826.81
2022-09-10T01:09:33.523Z,96830.50
2022-09-10T01:10:41.006Z,96827.06
2022-09-10T01:11:49.931Z,96821.22
2022-09-10T01:12:54.670Z,96828.75
2022-09-10T01:14:14.787Z,96824.88
2022-09-10T01:15:28.877Z,96828.53
2022-09-10T01:16:59.926Z,96827.75
2022-09-10T01:18:24.077Z,96824.56
2022-09-10T01:19:25.864Z,96827.75
2022-09-10T01:20:29.028Z,96822.94
2022-09-10T01:21:47.141Z,96824.56
2022-09-10T01:22:57.935Z,96818.25
2022-09-10T01:24:12.845Z,96811.97
2022-09-10T01:25:34.254Z,96817.00
2022-09-10T01:26:55.266Z,96818.38
2022-09-10T01:27:59.945Z,96818.25
2022-09-10T01:29:24.806Z,96816.66
2022-09-10T01:30:36.382Z,96817.69
2022-09-10T01:31:50.267Z,96816.09
2022-09-10T01:32:52.055Z,96813.69
2022-09-10T01:34:02.517Z,96819.44
2022-09-10T01:35:23.833Z,96807.81
2022-09-10T01:36:29.855Z,96819.25
2022-09-10T01:37:32.406Z,96810.56
2022-09-10T01:38:35.939Z,96810.31
2022-09-10T01:39:38.614Z,96804.84
2022-09-10T01:40:40.606Z,96811.69
2022-09-10T01:41:42.899Z,96807.69
2022-09-10T01:42:45.751Z,96811.59
2022-09-10T01:43:47.565Z,96812.38
2022-09-10T01:44:50.484Z,96810.31
2022-09-10T01:45:52.327Z,96808.47
2022-09-10T01:47:11.683Z,96814.56
2022-09-10T01:48:29.459Z,96807.69
2022-09-10T01:49:39.523Z,96816.84
2022-09-10T01:51:04.760Z,96817.66
2022-09-10T01:52:28.766Z,96819.25
2022-09-10T01:53:39.634Z,96812.63
2022-09-10T01:55:00.189Z,96814.94
2022-09-10T01:56:08.148Z,96820.81
2022-09-10T01:57:15.939Z,96818.16
2022-09-10T01:58:26.921Z,96825.81
2022-09-10T01:59:29.364Z,96829.81
2022-09-10T02:00:33.657Z,96815.63
2022-09-10T02:01:46.250Z,96825.13
2022-09-10T02:02:58.017Z,96835.06
2022-09-10T02:04:02.292Z,96827.97
2022-09-10T02:05:06.452Z,96825.91
2022-09-10T02:06:09.818Z,96830.38
2022-09-10T02:07:13.164Z,96827.75
2022-09-10T02:08:21.268Z,96831.97
2022-09-10T02:09:23.352Z,96840.91
2022-09-10T02:10:25.383Z,96831.19
2022-09-10T02:11:27.211Z,96826.69
2022-09-10T02:12:29.877Z,96823.84
2022-09-10T02:13:31.731Z,96820.50
2022-09-10T02:14:33.791Z,96825.75
2022-09-10T02:15:38.279Z,96828.97
2022-09-10T02:16:43.468Z,96826.91
2022-09-10T02:17:46.881Z,96832.97
2022-09-10T02:18:49.950Z,96835.59
2022-09-10T02:19:52.883Z,96819.00
2022-09-10T02:20:58.377Z,96834.47
2022-09-10T02:22:01.303Z,96829.44
2022-09-10T02:23:03.760Z,96833.00
2022-09-10T02:24:07.258Z,96832.44
2022-09-10T02:25:10.125Z,96834.50
2022-09-10T02:26:14.514Z,96834.97
2022-09-10T02:27:16.596Z,96830.97
2022-09-10T02:28:18.881Z,96834.97
2022-09-10T02:29:20.777Z,96829.72
2022-09-10T02:30:23.967Z,96827.00
2022-09-10T02:31:26.331Z,96826.44
2022-09-10T02:32:28.991Z,96820.91
2022-09-10T02:33:31.365Z,96827.56
2022-09-10T02:34:33.353Z,96827.31
2022-09-10T02:35:35.134Z,96828.81
2022-09-10T02:36:37.512Z,96830.41
2022-09-10T02:37:39.291Z,96830.97
2022-09-10T02:38:41.147Z,96832.34
2022-09-10T02:39:43.493Z,96828.69
2022-09-10T02:40:48.761Z,96827.66
2022-09-10T02:41:51.230Z,96834.25
2022-09-10T02:42:53.051Z,96835.88
2022-09-10T02:43:55.915Z,96829.56
2022-09-10T02:44:57.753Z,96839.28
2022-09-10T02:45:59.910Z,96837.38
2022-09-10T02:47:01.746Z,96834.19
2022-09-10T02:48:04.529Z,96829.94
2022-09-10T02:49:06.729Z,96829.16
2022-09-10T02:50:08.996Z,96828.69
2022-09-10T02:51:10.982Z,96827.31
2022-09-10T02:52:12.890Z,96830.19
2022-09-10T02:53:14.661Z,96828.13
2022-09-10T02:54:16.666Z,96828.13
2022-09-10T02:55:19.075Z,96824.44
2022-09-10T02:56:20.899Z,96818.97
2022-09-10T02:57:22.733Z,96826.06
2022-09-10T02:58:24.528Z,96820.13
2022-09-10T02:59:26.313Z,96819.13
2022-09-10T03:00:28.069Z,96818.53
2022-09-10T03:01:30.062Z,96814.31
2022-09-10T03:02:31.934Z,96814.31
2022-09-10T03:03:33.686Z,96825.03
2022-09-10T03:04:35.503Z,96823.25
2022-09-10T03:05:38.640Z,96817.41
2022-09-10T03:06:41.149Z,96820.72
2022-09-10T03:07:44.062Z,96813.09
2022-09-10T03:08:45.894Z,96826.31
2022-09-10T03:09:47.808Z,96827.09
2022-09-10T03:10:49.879Z,96819.00
2022-09-10T03:11:52.237Z,96825.88
2022-09-10T03:12:54.745Z,96818.22
2022-09-10T03:13:56.516Z,96825.75
2022-09-10T03:14:59.534Z,96830.00
2022-09-10T03:16:04.429Z,96823.47
2022-09-10T03:17:06.593Z,96829.50
2022-09-10T03:18:09.513Z,96826.31
2022-09-10T03:19:11.304Z,96824.47
2022-09-10T03:20:13.818Z,96826.31
2022-09-10T03:21:18.655Z,96819.47
2022-09-10T03:22:20.492Z,96814.22
2022-09-10T03:23:22.406Z,96820.28
2022-09-10T03:24:25.665Z,96818.34
2022-09-10T03:25:27.421Z,96820.41
2022-09-10T03:26:29.126Z,96817.66
2022-09-10T03:27:31.101Z,96810.81
2022-09-10T03:28:33.368Z,96807.94
2022-09-10T03:29:35.171Z,96810.34
2022-09-10T03:30:37.530Z,96809.91
2022-09-10T03:31:39.965Z,96802.81
2022-09-10T03:32:41.909Z,96809.34
2022-09-10T03:33:43.995Z,96808.28
2022-09-10T03:34:45.763Z,96812.53
2022-09-10T03:35:48.792Z,96812.53
2022-09-10T03:36:51.754Z,96824.06
2022-09-10T03:37:53.632Z,96819.59
2022-09-10T03:38:55.512Z,96815.59
2022-09-10T03:39:58.260Z,96813.19
2022-09-10T03:41:03.273Z,96818.47
2022-09-10T03:42:05.510Z,96816.19
2022-09-10T03:43:07.509Z,96815.97
2022-09-10T03:44:09.461Z,96811.84
2022-09-10T03:45:12.346Z,96810.22
2022-09-10T03:46:14.761Z,96812.88
2022-09-10T03:47:16.752Z,96808.66
2022-09-10T03:48:19.591Z,96821.78
2022-09-10T03:49:21.407Z,96823.63
2022-09-10T03:50:23.252Z,96816.53
2022-09-10T03:51:25.194Z,96808.44
2022-09-10T03:52:27.402Z,96806.81
2022-09-10T03:53:29.230Z,96809.44
2022-09-10T03:54:31.058Z,96806.47
2022-09-10T03:55:32.855Z,96813.56
2022-09-10T03:56:34.935Z,96814.13
2022-09-10T03:57:36.666Z,96810.16
2022-09-10T03:58:39.191Z,96815.41
2022-09-10T03:59:41.428Z,96812.31
2022-09-10T04:00:43.258Z,96816.53
2022-09-10T04:01:45.702Z,96818.94
2022-09-10T04:02:48.529Z,96818.38
2022-09-10T04:03:50.493Z,96815.97
2022-09-10T04:04:52.247Z,96820.19
2022-09-10T04:05:54.446Z,96820.75
2022-09-10T04:06:56.279Z,96816.06
2022-09-10T04:08:02.225Z,96818.13
2022-09-10T04:09:04.096Z,96824.41
2022-09-10T04:10:06.157Z,96816.53
2022-09-10T04:11:08.020Z,96819.16
2022-09-10T04:12:09.967Z,96821.00
2022-09-10T04:13:11.987Z,96822.81
2022-09-10T04:14:13.983Z,96826.00
2022-09-10T04:15:15.926Z,96823.63
2022-09-10T04:16:18.408Z,96823.38
2022-09-10T04:17:21.045Z,96828.41
2022-09-10T04:18:22.886Z,96825.56
2022-09-10T04:19:25.011Z,96831.38
2022-09-10T04:20:27.351Z,96835.84
2022-09-10T04:21:29.292Z,96835.84
2022-09-10T04:22:31.104Z,96834.22
2022-09-10T04:23:33.079Z,96828.19
2022-09-10T04:24:34.980Z,96830.81
2022-09-10T04:25:36.797Z,96833.88
2022-09-10T04:26:38.651Z,96832.31
2022-09-10T04:27:40.411Z,96838.34
2022-09-10T04:28:42.252Z,96839.13
2022-09-10T04:29:44.314Z,96828.63
2022-09-10T04:30:47.383Z,96825.44
2022-09-10T04:31:49.275Z,96824.31
2022-09-10T04:32:52.882Z,96834.25
2022-09-10T04:33:54.913Z,96831.88
2022-09-10T04:34:56.758Z,96834.50
2022-09-10T04:36:01.329Z,96829.00
2022-09-10T04:37:03.049Z,96826.13
2022-09-10T04:38:04.908Z,96821.09
2022-09-10T04:39:06.675Z,96827.41
2022-09-10T04:40:12.096Z,96826.38
2022-09-10T04:41:15.791Z,96829.00
2022-09-10T04:42:19.402Z,96839.28
2022-09-10T04:43:21.207Z,96829.56
2022-09-10T04:44:23.021Z,96835.84
2022-09-10T04:45:26.177Z,96829.81
2022-09-10T04:46:28.063Z,96835.50
2022-09-10T04:47:29.976Z,96831.97
2022-09-10T04:48:32.807Z,96834.59
2022-09-10T04:49:34.591Z,96841.25
2022-09-10T04:50:36.330Z,96830.47
2022-09-10T04:51:38.139Z,96832.88
2022-09-10T04:52:39.972Z,96832.88
2022-09-10T04:53:42.197Z,96838.94
2022-09-10T04:54:44.208Z,96827.41
2022-09-10T04:55:47.140Z,96834.81
2022-09-10T04:56:50.009Z,96841.69
2022-09-10T04:57:51.977Z,96841.69
2022-09-10T04:58:53.752Z,96843.25
2022-09-10T04:59:56.000Z,96843.25
2022-09-10T05:00:57.875Z,96849.00
2022-09-10T05:01:59.667Z,96839.75
2022-09-10T05:03:01.571Z,96846.25
2022-09-10T05:04:03.851Z,96839.19
2022-09-10T05:05:05.940Z,96840.69
2022-09-10T05:06:07.757Z,96849.34
2022-09-10T05:07:09.682Z,96848.56
2022-09-10T05:08:12.985Z,96845.13
2022-09-10T05:09:14.768Z,96850.16
2022-09-10T05:10:16.735Z,96846.25
2022-09-10T05:11:21.418Z,96847.88
2022-09-10T05:12:24.462Z,96844.19
2022-09-10T05:13:26.232Z,96849.22
2022-09-10T05:14:28.524Z,96848.66
2022-09-10T05:15:30.375Z,96850.50
2022-09-10T05:16:32.237Z,96849.13
2022-09-10T05:17:34.427Z,96855.88
2022-09-10T05:18:36.196Z,96855.63
2022-09-10T05:19:37.950Z,96861.44
2022-09-10T05:20:39.799Z,96854.94
2022-09-10T05:21:41.675Z,96857.09
2022-09-10T05:22:43.506Z,96856.53
2022-09-10T05:23:45.466Z,96860.88
2022-09-10T05:24:47.319Z,96865.00
2022-09-10T05:25:49.136Z,96860.22
2022-09-10T05:26:51.002Z,96866.47
2022-09-10T05:27:53.001Z,96860.91
2022-09-10T05:28:55.788Z,96861.69
2022-09-10T05:29:57.918Z,96871.16
2022-09-10T05:30:59.917Z,96869.94
2022-09-10T05:32:01.823Z,96873.13
2022-09-10T05:33:03.816Z,96874.50
2022-09-10T05:34:05.610Z,96868.19
2022-09-10T05:35:08.969Z,96871.88
2022-09-10T05:36:11.009Z,96864.44
2022-09-10T05:37:12.794Z,96873.91
2022-09-10T05:38:14.532Z,96877.91
2022-09-10T05:39:16.656Z,96872.44
2022-09-10T05:40:18.867Z,96863.50
2022-09-10T05:41:21.305Z,96866.69
2022-09-10T05:42:23.105Z,96871.72
2022-09-10T05:43:25.361Z,96865.22
2022-09-10T05:44:27.117Z,96869.44
2022-09-10T05:45:29.023Z,96866.81
2022-09-10T05:46:33.541Z,96861.00
2022-09-10T05:47:35.820Z,96871.50
2022-09-10T05:48:40.991Z,96868.66
2022-09-10T05:49:43.576Z,96866.81
2022-09-10T05:50:45.984Z,96873.34
2022-09-10T05:51:47.747Z,96868.88
2022-09-10T05:52:49.488Z,96869.66
2022-09-10T05:53:51.326Z,96868.88
2022-09-10T05:54:54.819Z,96868.09
2022-09-10T05:55:56.620Z,96869.91
2022-09-10T05:56:58.953Z,96867.75
2022-09-10T05:58:00.860Z,96865.34
2022-09-10T05:59:04.295Z,96866.94
2022-09-10T06:00:09.722Z,96867.53
2022-09-10T06:01:11.528Z,96870.94
2022-09-10T06:02:19.545Z,96874.34
2022-09-10T06:03:25.093Z,96874.59
2022-09-10T06:04:26.980Z,96868.19
2022-09-10T06:05:28.790Z,96867.19
2022-09-10T06:06:31.265Z,96869.59
2022-09-10T06:07:33.141Z,96865.69
2022-09-10T06:08:35.974Z,96868.88
2022-09-10T06:09:37.731Z,96866.81
2022-09-10T06:10:39.666Z,96868.41
2022-09-10T06:11:42.059Z,96872.88
2022-09-10T06:12:47.056Z,96867.84
2022-09-10T06:13:49.267Z,96867.03
2022-09-10T06:14:51.096Z,96869.66
2022-09-10T06:15:53.219Z,96872.09
2022-09-10T06:16:55.816Z,96873.66
2022-09-10T06:17:58.491Z,96870.03
2022-09-10T06:19:00.556Z,96866.81
2022-09-10T06:20:02.395Z,96873.56
2022-09-10T06:21:04.307Z,96881.91
2022-09-10T06:22:06.507Z,96866.13
2022-09-10T06:23:08.358Z,96872.22
2022-09-10T06:24:10.367Z,96872.22
2022-09-10T06:25:12.848Z,96872.53
2022-09-10T06:26:17.300Z,96868.41
2022-09-10T06:27:19.187Z,96867.97
2022-09-10T06:28:20.909Z,96867.25
2022-09-10T06:29:22.811Z,96871.03
2022-09-10T06:30:24.685Z,96870.56
2022-09-10T06:31:27.398Z,96870.91
2022-09-10T06:32:29.226Z,96874.13
2022-09-10T06:33:31.412Z,96878.88
2022-09-10T06:34:33.226Z,96867.94
2022-09-10T06:35:35.717Z,96867.34
2022-09-10T06:36:37.567Z,96860.25
2022-09-10T06:37:39.479Z,96867.94
2022-09-10T06:38:41.756Z,96859.00
2022-09-10T06:39:43.549Z,96862.41
2022-09-10T06:40:55.225Z,96863.22
2022-09-10T06:41:57.005Z,96856.13
2022-09-10T06:43:01.477Z,96851.66
2022-09-10T06:44:03.376Z,96855.44
2022-09-10T06:45:05.926Z,96850.28
2022-09-10T06:46:24.773Z,96852.66
2022-09-10T06:48:18.829Z,96851.06
2022-09-10T06:48:53.882Z,96850.59
2022-09-10T06:49:56.160Z,96856.69
2022-09-10T06:50:59.128Z,96854.28
2022-09-10T06:52:01.750Z,96861.25
2022-09-10T06:53:03.611Z,96857.50
2022-09-10T06:54:05.754Z,96857.28
2022-09-10T06:55:07.733Z,96859.41
2022-09-10T06:56:13.056Z,96857.34
2022-09-10T06:57:14.859Z,96857.13
2022-09-10T06:58:20.955Z,96853.22
2022-09-10T06:59:23.506Z,96861.44
2022-09-10T07:00:25.417Z,96849.69
2022-09-10T07:01:27.262Z,96852.06
2022-09-10T07:02:31.154Z,96850.34
2022-09-10T07:03:32.949Z,96848.84
2022-09-10T07:04:34.904Z,96847.00
2022-09-10T07:05:36.724Z,96844.38
2022-09-10T07:06:38.925Z,96850.66
2022-09-10T07:07:41.152Z,96856.28
2022-09-10T07:08:43.189Z,96852.59
2022-09-10T07:09:44.994Z,96847.66
2022-09-10T07:10:46.906Z,96846.38
2022-09-10T07:11:48.749Z,96851.66
2022-09-10T07:12:50.602Z,96851.41
2022-09-10T07:13:54.064Z,96847.53
2022-09-10T07:14:55.911Z,96850.50
2022-09-10T07:15:58.193Z,96845.81
2022-09-10T07:17:00.024Z,96852.69
2022-09-10T07:18:01.830Z,96848.91
2022-09-10T07:19:03.590Z,96849.38
2022-09-10T07:20:05.901Z,96846.53
2022-09-10T07:21:11.427Z,96846.28
2022-09-10T07:22:13.339Z,96850.50
2022-09-10T07:23:16.669Z,96842.63
2022-09-10T07:24:20.272Z,96847.09
2022-09-10T07:25:23.130Z,96850.28
2022-09-10T07:26:26.156Z,96857.69
2022-09-10T07:27:27.942Z,96850.13
2022-09-10T07:28:29.856Z,96852.28
2022-09-10T07:29:31.771Z,96847.34
2022-09-10T07:30:36.254Z,96850.53
2022-09-10T07:31:38.620Z,96854.78
2022-09-10T07:32:43.557Z,96860.81
2022-09-10T07:33:46.159Z,96856.59
2022-09-10T07:34:47.954Z,96862.09
2022-09-10T07:35:50.127Z,96862.09
2022-09-10T07:36:51.918Z,96870.56
2022-09-10T07:37:54.595Z,96858.97
2022-09-10T07:39:03.927Z,96855.56
2022-09-10T07:40:06.888Z,96853.72
2022-09-10T07:41:11.552Z,96850.28
2022-09-10T07:42:13.332Z,96850.28
2022-09-10T07:43:15.717Z,96852.69
2022-09-10T07:44:17.530Z,96852.22
2022-09-10T07:45:19.393Z,96850.97
2022-09-10T07:46:22.061Z,96848.88
2022-09-10T07:47:25.497Z,96848.41
2022-09-10T07:48:28.624Z,96844.75
2022-09-10T07:49:30.518Z,96839.47
2022-09-10T07:50:32.381Z,96846.31
2022-09-10T07:51:34.755Z,96851.13
2022-09-10T07:52:37.077Z,96852.81
2022-09-10T07:53:44.423Z,96840.75
2022-09-10T07:54:51.738Z,96841.88
2022-09-10T07:56:04.022Z,96845.28
2022-09-10T07:57:05.947Z,96838.19
2022-09-10T07:58:07.661Z,96837.63
2022-09-10T07:59:09.436Z,96842.66
2022-09-10T08:00:16.027Z,96847.13
2022-09-10T08:01:19.811Z,96849.28
2022-09-10T08:02:22.629Z,96845.63
2022-09-10T08:03:24.429Z,96855.09
2022-09-10T08:04:26.297Z,96856.72
2022-09-10T08:05:29.381Z,96857.50
2022-09-10T08:06:32.490Z,96854.63
2022-09-10T08:07:34.538Z,96851.22
2022-09-10T08:08:38.679Z,96859.66
2022-09-10T08:09:40.533Z,96856.31
2022-09-10T08:10:42.473Z,96861.34
2022-09-10T08:11:44.252Z,96860.78
2022-09-10T08:12:46.073Z,96859.97
2022-09-10T08:13:48.980Z,96858.16
2022-09-10T08:14:51.091Z,96856.06
2022-09-10T08:15:52.980Z,96856.41
2022-09-10T08:16:54.861Z,96856.69
2022-09-10T08:17:56.770Z,96855.44
2022-09-10T08:18:58.651Z,96861.25
2022-09-10T08:20:01.485Z,96853.09
2022-09-10T08:21:04.455Z,96850.47
2022-09-10T08:22:09.141Z,96860.22
2022-09-10T08:23:14.696Z,96854.16
2022-09-10T08:24:16.620Z,96852.88
2022-09-10T08:25:20.985Z,96851.84
2022-09-10T08:26:23.940Z,96846.63
2022-09-10T08:27:25.686Z,96855.09
2022-09-10T08:28:27.866Z,96853.00
2022-09-10T08:29:30.265Z,96855.41
2022-09-10T08:30:32.438Z,96855.19
2022-09-10T08:31:34.911Z,96856.75
2022-09-10T08:32:36.780Z,96857.31
2022-09-10T08:33:40.106Z,96855.22
2022-09-10T08:34:46.369Z,96856.84
2022-09-10T08:35:57.313Z,96860.50
2022-09-10T08:36:59.920Z,96857.88
2022-09-10T08:38:01.976Z,96865.78
2022-09-10T08:39:08.118Z,96851.56
2022-09-10T08:40:14.578Z,96857.97
2022-09-10T08:41:22.422Z,96865.38
2022-09-10T08:42:28.598Z,96857.56
2022-09-10T08:43:45.796Z,96863.38
2022-09-10T08:44:55.939Z,96861.88
2022-09-10T08:46:03.341Z,96856.34
2022-09-10T08:47:20.744Z,96851.63
2022-09-10T08:48:25.632Z,96857.94
2022-09-10T08:49:45.845Z,96852.66
2022-09-10T08:50:53.437Z,96853.94
2022-09-10T08:52:19.455Z,96861.88
2022-09-10T08:53:32.213Z,96860.25
2022-09-10T08:54:48.528Z,96861.13
2022-09-10T08:55:52.123Z,96862.47
2022-09-10T08:56:58.603Z,96865.75
2022-09-10T08:58:10.579Z,96858.69
2022-09-10T08:59:18.279Z,96860.91
2022-09-10T09:00:24.809Z,96863.84
2022-09-10T09:01:42.386Z,96855.75
2022-09-10T09:02:49.492Z,96866.94
2022-09-10T09:03:52.015Z,96859.28
2022-09-10T09:05:05.894Z,96861.44
2022-09-10T09:06:26.153Z,96857.19
2022-09-10T09:07:31.633Z,96871.22
2022-09-10T09:08:48.679Z,96863.00
2022-09-10T09:09:54.747Z,96860.03
2022-09-10T09:11:04.448Z,96860.81
2022-09-10T09:12:38.653Z,96862.44
2022-09-10T09:13:58.666Z,96859.81
2022-09-10T09:15:14.193Z,96862.75
2022-09-10T09:16:16.957Z,96868.84
2022-09-10T09:17:40.972Z,96865.75
2022-09-10T09:19:08.896Z,96860.78
2022-09-10T09:20:15.888Z,96870.63
2022-09-10T09:21:20.969Z,96867.25
2022-09-10T09:22:46.579Z,96861.72
2022-09-10T09:24:13.058Z,96866.75
2022-09-10T09:25:23.043Z,96871.00
2022-09-10T09:26:28.800Z,96867.56
2022-09-10T09:27:33.899Z,96871.00
2022-09-10T09:28:50.845Z,96869.69
2022-09-10T09:30:08.398Z,96875.22
2022-09-10T09:31:14.640Z,96871.53
2022-09-10T09:32:18.145Z,96874.00
2022-09-10T09:33:23.941Z,96863.75
2022-09-10T09:34:25.968Z,96866.38
2022-09-10T09:35:33.135Z,96869.28
2022-09-10T09:36:39.647Z,96861.59
2022-09-10T09:37:42.395Z,96868.72
2022-09-10T09:38:47.481Z,96861.03
2022-09-10T09:40:05.823Z,96857.59
2022-09-10T09:41:28.399Z,96854.94
2022-09-10T09:42:35.731Z,96860.97
2022-09-10T09:43:50.127Z,96857.00
2022-09-10T09:45:01.762Z,96859.09
2022-09-10T09:46:04.956Z,96853.81
2022-09-10T09:47:09.505Z,96856.44
2022-09-10T09:48:18.515Z,96861.47
2022-09-10T09:49:20.423Z,96857.78
2022-09-10T09:50:23.189Z,96853.31
2022-09-10T09:51:25.589Z,96854.63
2022-09-10T09:52:31.592Z,96857.59
2022-09-10T09:53:33.430Z,96859.78
2022-09-10T09:55:09.919Z,96857.91
2022-09-10T09:56:02.384Z,96857.13
2022-09-10T09:57:14.792Z,96862.41
2022-09-10T09:58:22.740Z,96859.22
2022-09-10T09:59:24.585Z,96859.22
2022-09-10T10:00:37.484Z,96863.44
2022-09-10T10:01:40.784Z,96866.88
2022-09-10T10:02:43.021Z,96860.56
2022-09-10T10:03:50.571Z,96878.53
2022-09-10T10:04:55.629Z,96878.84
2022-09-10T10:06:08.212Z,96874.09
2022-09-10T10:07:12.194Z,96878.34
2022-09-10T10:08:42.963Z,96869.59
2022-09-10T10:09:49.318Z,96878.34
2022-09-10T10:10:52.171Z,96875.16
2022-09-10T10:12:00.525Z,96873.56
2022-09-10T10:13:02.272Z,96873.78
2022-09-10T10:14:23.725Z,96877.50
2022-09-10T10:15:39.355Z,96880.69
2022-09-10T10:16:41.118Z,96881.47
2022-09-10T10:17:43.810Z,96868.28
2022-09-10T10:18:46.054Z,96867.47
2022-09-10T10:19:57.249Z,96869.88
2022-09-10T10:21:10.987Z,96874.09
2022-09-10T10:22:18.889Z,96875.16
2022-09-10T10:23:34.480Z,96879.38
2022-09-10T10:24:36.251Z,96875.16
2022-09-10T10:25:40.751Z,96879.38
2022-09-10T10:26:44.316Z,96872.25
2022-09-10T10:27:48.555Z,96873.63
2022-09-10T10:28:56.354Z,96869.91
2022-09-10T10:30:00.538Z,96870.69
2022-09-10T10:31:04.746Z,96862.78
2022-09-10T10:32:15.594Z,96867.28
2022-09-10T10:33:19.700Z,96870.47
2022-09-10T10:34:30.753Z,96877.84
2022-09-10T10:35:44.682Z,96875.75
2022-09-10T10:37:05.084Z,96872.06
2022-09-10T10:38:13.312Z,96863.88
2022-09-10T10:39:21.081Z,96861.50
2022-09-10T10:40:43.904Z,96867.03
2022-09-10T10:41:59.935Z,96863.59
2022-09-10T10:43:01.673Z,96859.91
2022-09-10T10:44:24.447Z,96855.41
2022-09-10T10:45:39.151Z,96864.69
2022-09-10T10:46:54.422Z,96869.97
2022-09-10T10:48:12.854Z,96868.38
2022-09-10T10:49:29.735Z,96873.66
2022-09-10T10:50:35.266Z,96872.63
2022-09-10T10:51:37.154Z,96873.16
2022-09-10T10:52:57.068Z,96859.97
2022-09-10T10:54:05.052Z,96861.00
2022-09-10T10:55:09.927Z,96858.34
2022-09-10T10:56:20.236Z,96860.19
2022-09-10T10:57:28.170Z,96859.41
2022-09-10T10:58:41.273Z,96865.72
2022-09-10T11:00:03.931Z,96864.94
2022-09-10T11:01:19.582Z,96866.28
2022-09-10T11:02:41.682Z,96860.19
2022-09-10T11:04:01.983Z,96855.47
2022-09-10T11:05:18.594Z,96857.31
2022-09-10T11:06:23.774Z,96844.13
2022-09-10T11:07:28.863Z,96852.03
2022-09-10T11:08:34.943Z,96850.97
2022-09-10T11:09:41.461Z,96845.44
2022-09-10T11:10:45.391Z,96846.50
2022-09-10T11:11:50.177Z,96845.44
2022-09-10T11:13:03.889Z,96843.34
2022-09-10T11:14:16.353Z,96851.81
2022-09-10T11:15:25.448Z,96846.84
2022-09-10T11:16:29.717Z,96845.00
2022-09-10T11:17:43.867Z,96835.22
2022-09-10T11:18:51.106Z,96841.03
2022-09-10T11:20:28.078Z,96847.13
2022-09-10T11:21:35.282Z,96841.00
2022-09-10T11:22:42.108Z,96845.22
2022-09-10T11:23:52.656Z,96840.50
2022-09-10T11:25:08.806Z,96842.66
2022-09-10T11:26:21.294Z,96845.03
2022-09-10T11:27:27.946Z,96849.00
2022-09-10T11:28:36.812Z,96846.13
2022-09-10T11:29:57.366Z,96848.50
2022-09-10T11:31:19.778Z,96842.13
2022-09-10T11:32:30.828Z,96840.69
2022-09-10T11:33:46.529Z,96847.19
2022-09-10T11:35:04.015Z,96841.59
2022-09-10T11:36:11.278Z,96841.19
2022-09-10T11:37:20.504Z,96841.00
2022-09-10T11:38:30.699Z,96834.75
2022-09-10T11:39:34.711Z,96831.56
2022-09-10T11:40:46.547Z,96834.25
2022-09-10T11:41:52.247Z,96828.69
2022-09-10T11:42:57.081Z,96825.22
2022-09-10T11:44:18.612Z,96828.94
2022-09-10T11:45:29.771Z,96819.56
2022-09-10T11:46:36.210Z,96810.00
2022-09-10T11:47:44.919Z,96811.03
2022-09-10T11:48:49.879Z,96818.59
2022-09-10T11:49:51.637Z,96812.44
2022-09-10T11:50:57.866Z,96819.78
2022-09-10T11:51:59.779Z,96823.34
2022-09-10T11:53:04.222Z,96811.63
2022-09-10T11:54:10.414Z,96813.69
2022-09-10T11:55:14.904Z,96814.69
2022-09-10T11:56:35.213Z,96815.69
2022-09-10T11:57:40.158Z,96819.25
2022-09-10T11:58:59.996Z,96809.41
2022-09-10T12:00:07.932Z,96812.16
2022-09-10T12:01:09.667Z,96812.47
2022-09-10T12:02:30.062Z,96812.66
2022-09-10T12:03:38.183Z,96805.72
2022-09-10T12:04:58.749Z,96810.59
2022-09-10T12:06:00.979Z,96812.41
2022-09-10T12:07:09.234Z,96812.81
2022-09-10T12:08:17.992Z,96814.22
2022-09-10T12:09:25.054Z,96810.06
2022-09-10T12:10:44.922Z,96814.63
2022-09-10T12:12:04.973Z,96815.72
2022-09-10T12:13:09.819Z,96810.47
2022-09-10T12:14:15.845Z,96806.81
2022-09-10T12:15:20.057Z,96803.94
2022-09-10T12:16:41.348Z,96807.91
2022-09-10T12:17:45.512Z,96807.91
2022-09-10T12:18:49.181Z,96800.41
2022-09-10T12:19:53.854Z,96804.28
2022-09-10T12:21:00.407Z,96809.25
2022-09-10T12:22:04.691Z,96813.66
2022-09-10T12:23:06.956Z,96815.53
2022-09-10T12:24:29.942Z,96809.97
2022-09-10T12:25:34.558Z,96801.56
2022-09-10T12:26:45.151Z,96804.56
2022-09-10T12:27:51.965Z,96805.56
2022-09-10T12:28:53.803Z,96796.25
2022-09-10T12:29:55.666Z,96803.72
2022-09-10T12:31:01.414Z,96792.75
2022-09-10T12:32:09.342Z,96776.47
2022-09-10T12:33:13.887Z,96774.03
2022-09-10T12:34:17.413Z,96777.91
2022-09-10T12:35:38.263Z,96782.91
2022-09-10T12:36:40.142Z,96782.94
2022-09-10T12:37:41.883Z,96779.88
2022-09-10T12:38:50.104Z,96773.81
2022-09-10T12:40:24.107Z,96768.78
2022-09-10T12:41:25.940Z,96772.69
2022-09-10T12:42:29.717Z,96774.44
2022-09-10T12:43:40.417Z,96781.38
2022-09-10T12:44:42.211Z,96775.47
2022-09-10T12:46:03.882Z,96776.94
2022-09-10T12:47:17.886Z,96767.50
2022-09-10T12:48:22.869Z,96770.03
2022-09-10T12:49:27.096Z,96769.88